Time;durP1;ratioP1;P1;durP2;ratioP2;P2;SDS_P1;SDS_P2;PMS_P1;PMS_P2;Temp;Humidity;BMP_temperature;BMP_pressure;BME280_temperature;BME280_humidity;BME280_pressure;Samples;Min_cycle;Max_cycle;Signal;HPM_P1;HPM_P2
2021/07/15 00:00:59;;;;;;;0.33;0.27;;;;;;;;;;5037976;28;20419;-68
2021/07/15 00:03:27;;;;;;;0.40;0.30;;;;;;;;;;5055782;28;20416;-69
2021/07/15 00:05:54;;;;;;;0.40;0.30;;;;;;;;;;5055410;28;20493;-68
2021/07/15 00:08:21;;;;;;;0.40;0.30;;;;;;;;;;5055111;28;20509;-69
2021/07/15 00:10:58;;;;;;;0.30;0.20;;;;;;;;;;5054943;28;20854;-68
2021/07/15 00:13:24;;;;;;;0.50;0.23;;;;;;;;;;5055277;28;21003;-69
2021/07/15 00:15:52;;;;;;;0.30;0.20;;;;;;;;;;5055111;28;20425;-68
2021/07/15 00:18:22;;;;;;;0.40;0.20;;;;;;;;;;5055265;28;20423;-68
2021/07/15 00:20:48;;;;;;;0.30;0.20;;;;;;;;;;5054865;28;20502;-68
2021/07/15 00:23:14;;;;;;;0.30;0.20;;;;;;;;;;5055256;28;20780;-69
2021/07/15 00:25:40;;;;;;;0.73;0.30;;;;;;;;;;5054560;28;20411;-69
2021/07/15 00:28:06;;;;;;;0.50;0.40;;;;;;;;;;5066219;28;20509;-67
2021/07/15 00:30:32;;;;;;;0.40;0.30;;;;;;;;;;5074720;28;20422;-68
2021/07/15 00:32:58;;;;;;;0.30;0.20;;;;;;;;;;5074731;28;20442;-68
2021/07/15 00:35:24;;;;;;;1.40;0.40;;;;;;;;;;5073315;28;20504;-68
2021/07/15 00:37:50;;;;;;;1.00;0.30;;;;;;;;;;5075354;28;20410;-68
2021/07/15 00:40:17;;;;;;;0.40;0.20;;;;;;;;;;5074090;28;20414;-69
2021/07/15 00:42:44;;;;;;;1.27;0.30;;;;;;;;;;5074284;28;20516;-67
2021/07/15 00:45:11;;;;;;;0.40;0.20;;;;;;;;;;5074443;28;20779;-68
2021/07/15 00:47:37;;;;;;;0.40;0.20;;;;;;;;;;5074695;28;20474;-68
2021/07/15 00:50:05;;;;;;;0.50;0.30;;;;;;;;;;5074233;28;20432;-68
2021/07/15 00:52:31;;;;;;;1.00;0.40;;;;;;;;;;5074527;28;20418;-68
2021/07/15 00:54:57;;;;;;;0.63;0.50;;;;;;;;;;5074445;28;20445;-68
2021/07/15 00:57:23;;;;;;;0.40;0.30;;;;;;;;;;5073873;28;20493;-69
2021/07/15 00:59:51;;;;;;;1.53;0.60;;;;;;;;;;5074325;28;20488;-69
2021/07/15 01:02:17;;;;;;;0.40;0.30;;;;;;;;;;5074131;28;20505;-69
2021/07/15 01:04:43;;;;;;;0.50;0.30;;;;;;;;;;5056555;28;20430;-68
2021/07/15 01:07:09;;;;;;;2.30;0.30;;;;;;;;;;5074313;28;20470;-68
2021/07/15 01:09:35;;;;;;;1.17;0.47;;;;;;;;;;5073783;28;20415;-68
2021/07/15 01:12:14;;;;;;;0.57;0.23;;;;;;;;;;5072722;28;20489;-68
2021/07/15 01:14:49;;;;;;;0.40;0.30;;;;;;;;;;5066470;28;20520;-67
2021/07/15 01:17:18;;;;;;;0.60;0.27;;;;;;;;;;5061173;28;20525;-69
2021/07/15 01:20:03;;;;;;;0.30;0.20;;;;;;;;;;5053829;28;20456;-69
2021/07/15 01:22:34;;;;;;;0.60;0.27;;;;;;;;;;5053937;28;20451;-68
2021/07/15 01:25:16;;;;;;;0.30;0.30;;;;;;;;;;5053788;28;20498;-68
2021/07/15 01:28:00;;;;;;;0.43;0.30;;;;;;;;;;5064733;28;20477;-69
2021/07/15 01:30:46;;;;;;;0.30;0.20;;;;;;;;;;5073896;28;20418;-68
2021/07/15 01:33:23;;;;;;;1.07;0.30;;;;;;;;;;5073624;28;20418;-67
2021/07/15 01:35:49;;;;;;;0.70;0.30;;;;;;;;;;5073415;28;20409;-68
2021/07/15 01:38:17;;;;;;;0.40;0.30;;;;;;;;;;5055724;28;20495;-67
2021/07/15 01:40:45;;;;;;;2.00;0.37;;;;;;;;;;5073360;28;20889;-68
2021/07/15 01:43:14;;;;;;;1.00;0.30;;;;;;;;;;5073823;28;20421;-69
2021/07/15 01:45:40;;;;;;;0.60;0.30;;;;;;;;;;5073269;28;20815;-68
2021/07/15 01:48:06;;;;;;;0.40;0.20;;;;;;;;;;5072999;28;20524;-68
2021/07/15 01:50:34;;;;;;;0.63;0.20;;;;;;;;;;5072934;28;20453;-68
2021/07/15 01:53:00;;;;;;;0.40;0.20;;;;;;;;;;5073305;28;20453;-69
2021/07/15 01:55:26;;;;;;;0.30;0.20;;;;;;;;;;5072831;28;20493;-68
2021/07/15 01:57:53;;;;;;;1.90;0.20;;;;;;;;;;5072764;28;20422;-68
2021/07/15 02:00:19;;;;;;;2.23;0.30;;;;;;;;;;5054822;28;20513;-68
2021/07/15 02:02:46;;;;;;;0.40;0.20;;;;;;;;;;5073104;28;20931;-69
2021/07/15 02:05:13;;;;;;;0.53;0.30;;;;;;;;;;5072347;28;20418;-68
2021/07/15 02:07:40;;;;;;;0.80;0.30;;;;;;;;;;5052995;28;20561;-68
2021/07/15 02:10:07;;;;;;;0.30;0.20;;;;;;;;;;5052632;28;20415;-68
2021/07/15 02:12:34;;;;;;;1.03;0.20;;;;;;;;;;5052608;28;20813;-68
2021/07/15 02:15:00;;;;;;;0.43;0.30;;;;;;;;;;5052783;28;20430;-69
2021/07/15 02:17:26;;;;;;;0.30;0.20;;;;;;;;;;5052622;28;20419;-68
2021/07/15 02:19:52;;;;;;;0.40;0.20;;;;;;;;;;5052972;28;20440;-69
2021/07/15 02:22:19;;;;;;;0.30;0.20;;;;;;;;;;5052911;28;20997;-68
2021/07/15 02:24:46;;;;;;;0.40;0.20;;;;;;;;;;5052675;28;20491;-68
2021/07/15 02:27:13;;;;;;;0.80;0.30;;;;;;;;;;5061001;28;20963;-67
2021/07/15 02:29:39;;;;;;;0.30;0.20;;;;;;;;;;5092867;28;20481;-68
2021/07/15 02:32:06;;;;;;;0.50;0.20;;;;;;;;;;5078560;28;20437;-68
2021/07/15 02:34:46;;;;;;;0.40;0.20;;;;;;;;;;5072219;28;20422;-69
2021/07/15 02:37:13;;;;;;;0.63;0.27;;;;;;;;;;5072519;28;20418;-69
2021/07/15 02:39:39;;;;;;;3.60;0.30;;;;;;;;;;5054713;28;20438;-68
2021/07/15 02:42:05;;;;;;;0.40;0.20;;;;;;;;;;5071668;28;20426;-68
2021/07/15 02:44:31;;;;;;;0.30;0.20;;;;;;;;;;5072275;28;20425;-68
2021/07/15 02:46:57;;;;;;;0.30;0.20;;;;;;;;;;5072181;28;20458;-68
2021/07/15 02:49:23;;;;;;;1.00;0.30;;;;;;;;;;5072422;28;20422;-69
2021/07/15 02:51:49;;;;;;;0.30;0.20;;;;;;;;;;5072559;28;20781;-68
2021/07/15 02:54:16;;;;;;;0.30;0.20;;;;;;;;;;5072583;28;20465;-69
2021/07/15 02:56:48;;;;;;;0.30;0.20;;;;;;;;;;5047613;28;20765;-68
2021/07/15 02:59:20;;;;;;;0.60;0.40;;;;;;;;;;5051370;28;20767;-68
2021/07/15 03:01:49;;;;;;;0.30;0.20;;;;;;;;;;5052679;28;20445;-69
2021/07/15 03:04:18;;;;;;;2.00;0.20;;;;;;;;;;5052340;28;20526;-68
2021/07/15 03:06:44;;;;;;;0.30;0.20;;;;;;;;;;5051837;28;20901;-68
2021/07/15 03:09:15;;;;;;;0.30;0.20;;;;;;;;;;5052285;28;20814;-68
2021/07/15 03:11:46;;;;;;;0.30;0.20;;;;;;;;;;5051641;28;20486;-68
2021/07/15 03:14:13;;;;;;;0.40;0.20;;;;;;;;;;5053887;28;20507;-68
2021/07/15 03:16:40;;;;;;;0.40;0.20;;;;;;;;;;5051899;28;20971;-68
2021/07/15 03:19:08;;;;;;;0.40;0.20;;;;;;;;;;5052439;28;20825;-68
2021/07/15 03:21:35;;;;;;;1.03;0.30;;;;;;;;;;5051546;28;20490;-69
2021/07/15 03:24:03;;;;;;;0.30;0.20;;;;;;;;;;5052061;28;20709;-68
2021/07/15 03:26:30;;;;;;;0.40;0.20;;;;;;;;;;5053261;28;20427;-69
2021/07/15 03:28:57;;;;;;;0.50;0.20;;;;;;;;;;5071781;28;20491;-69
2021/07/15 03:31:24;;;;;;;0.50;0.20;;;;;;;;;;5071749;28;20517;-69
2021/07/15 03:33:51;;;;;;;0.70;0.30;;;;;;;;;;5072330;28;20454;-70
2021/07/15 03:36:17;;;;;;;0.40;0.20;;;;;;;;;;5071994;28;20422;-68
2021/07/15 03:38:44;;;;;;;0.33;0.27;;;;;;;;;;5072018;28;20449;-69
2021/07/15 03:41:11;;;;;;;0.50;0.40;;;;;;;;;;5071679;28;20889;-69
2021/07/15 03:43:39;;;;;;;0.50;0.30;;;;;;;;;;5071986;28;20514;-68
2021/07/15 03:46:07;;;;;;;2.00;0.30;;;;;;;;;;5051571;28;20762;-68
2021/07/15 03:48:33;;;;;;;0.70;0.30;;;;;;;;;;5051637;28;20603;-68
2021/07/15 03:51:04;;;;;;;4.03;0.67;;;;;;;;;;5051545;28;20848;-69
2021/07/15 03:53:31;;;;;;;0.40;0.23;;;;;;;;;;5051708;28;20505;-68
2021/07/15 03:55:58;;;;;;;1.03;0.47;;;;;;;;;;5051450;28;20891;-68
2021/07/15 03:58:25;;;;;;;0.30;0.30;;;;;;;;;;5034211;28;20909;-67
2021/07/15 04:00:51;;;;;;;1.40;0.40;;;;;;;;;;5051694;28;20434;-69
2021/07/15 04:03:22;;;;;;;1.70;1.03;;;;;;;;;;5052030;28;20913;-68
2021/07/15 04:05:50;;;;;;;1.60;0.43;;;;;;;;;;5051916;28;20455;-67
2021/07/15 04:08:17;;;;;;;0.67;0.47;;;;;;;;;;5051849;28;20562;-68
2021/07/15 04:10:43;;;;;;;0.40;0.40;;;;;;;;;;5053948;28;20474;-69
2021/07/15 04:13:11;;;;;;;0.40;0.30;;;;;;;;;;5037459;28;20534;-69
2021/07/15 04:15:55;;;;;;;0.50;0.40;;;;;;;;;;5055214;28;20430;-68
2021/07/15 04:18:27;;;;;;;0.57;0.40;;;;;;;;;;5055486;28;20455;-69
2021/07/15 04:20:54;;;;;;;0.47;0.20;;;;;;;;;;5037442;28;20473;-68
2021/07/15 04:23:22;;;;;;;0.50;0.40;;;;;;;;;;5055199;28;20469;-68
2021/07/15 04:25:48;;;;;;;3.10;0.43;;;;;;;;;;5054682;28;20469;-68
2021/07/15 04:28:14;;;;;;;0.93;0.30;;;;;;;;;;5081156;28;20489;-67
2021/07/15 04:30:44;;;;;;;1.53;0.50;;;;;;;;;;5095049;28;20447;-68
2021/07/15 04:33:10;;;;;;;1.07;0.60;;;;;;;;;;5095454;28;20511;-68
2021/07/15 04:35:37;;;;;;;0.40;0.30;;;;;;;;;;5077363;28;20421;-69
2021/07/15 04:38:04;;;;;;;1.07;0.50;;;;;;;;;;5095265;28;20827;-69
2021/07/15 04:40:30;;;;;;;0.50;0.40;;;;;;;;;;5094721;28;20417;-67
2021/07/15 04:43:02;;;;;;;2.97;0.60;;;;;;;;;;5094970;28;20471;-68
2021/07/15 04:45:29;;;;;;;0.63;0.40;;;;;;;;;;5095092;28;20461;-68
2021/07/15 04:47:55;;;;;;;1.43;0.40;;;;;;;;;;5094891;28;20468;-68
2021/07/15 04:50:23;;;;;;;1.17;0.60;;;;;;;;;;5095216;28;20498;-68
2021/07/15 04:52:51;;;;;;;0.63;0.60;;;;;;;;;;5094919;28;20737;-69
2021/07/15 04:55:20;;;;;;;1.70;0.40;;;;;;;;;;5079123;28;20429;-68
2021/07/15 04:57:48;;;;;;;0.47;0.30;;;;;;;;;;5054552;28;20412;-67
2021/07/15 05:00:15;;;;;;;0.37;0.30;;;;;;;;;;5054445;28;20932;-67
2021/07/15 05:02:41;;;;;;;2.20;0.20;;;;;;;;;;5054898;28;20750;-68
2021/07/15 05:05:11;;;;;;;0.30;0.20;;;;;;;;;;5036441;28;20888;-68
2021/07/15 05:07:38;;;;;;;0.30;0.20;;;;;;;;;;5054323;28;20514;-68
2021/07/15 05:10:05;;;;;;;1.00;0.30;;;;;;;;;;5053908;28;20415;-68
2021/07/15 05:12:31;;;;;;;2.30;0.40;;;;;;;;;;5053613;28;20519;-68
2021/07/15 05:14:57;;;;;;;0.50;0.27;;;;;;;;;;5054461;28;20474;-68
2021/07/15 05:17:23;;;;;;;0.30;0.20;;;;;;;;;;5074184;28;20469;-68
2021/07/15 05:19:51;;;;;;;2.47;0.30;;;;;;;;;;5074149;28;20505;-69
2021/07/15 05:22:17;;;;;;;1.80;0.30;;;;;;;;;;5073332;28;20468;-69
2021/07/15 05:24:43;;;;;;;0.73;0.30;;;;;;;;;;5074289;28;20524;-68
2021/07/15 05:27:09;;;;;;;2.93;0.30;;;;;;;;;;5073265;28;20461;-69
2021/07/15 05:29:35;;;;;;;3.13;0.50;;;;;;;;;;5074032;28;20429;-68
2021/07/15 05:32:01;;;;;;;1.87;0.30;;;;;;;;;;5073761;28;20421;-69
2021/07/15 05:34:27;;;;;;;0.60;0.30;;;;;;;;;;5071539;28;20422;-68
2021/07/15 05:36:53;;;;;;;0.30;0.20;;;;;;;;;;5058680;28;20761;-68
2021/07/15 05:39:19;;;;;;;0.40;0.30;;;;;;;;;;5052983;28;20411;-68
2021/07/15 05:41:46;;;;;;;0.60;0.30;;;;;;;;;;5063739;28;20460;-69
2021/07/15 05:44:12;;;;;;;1.33;0.20;;;;;;;;;;5072157;28;20427;-69
2021/07/15 05:46:38;;;;;;;1.37;0.20;;;;;;;;;;5078744;28;20574;-69
2021/07/15 05:49:04;;;;;;;1.37;0.40;;;;;;;;;;5071199;28;20434;-68
2021/07/15 05:51:30;;;;;;;0.40;0.30;;;;;;;;;;5068386;28;20473;-68
2021/07/15 05:53:56;;;;;;;0.80;0.30;;;;;;;;;;5065784;28;20439;-69
2021/07/15 05:56:22;;;;;;;0.40;0.20;;;;;;;;;;5077021;28;20465;-68
2021/07/15 05:58:48;;;;;;;0.30;0.20;;;;;;;;;;5072723;28;20439;-68
2021/07/15 06:01:14;;;;;;;0.40;0.30;;;;;;;;;;5078073;28;20438;-68
2021/07/15 06:03:40;;;;;;;1.17;0.30;;;;;;;;;;5074199;28;20438;-68
2021/07/15 06:06:06;;;;;;;0.40;0.30;;;;;;;;;;5078545;28;20780;-69
2021/07/15 06:08:32;;;;;;;0.50;0.27;;;;;;;;;;5079833;28;20504;-69
2021/07/15 06:10:58;;;;;;;0.50;0.30;;;;;;;;;;5080688;28;20912;-68
2021/07/15 06:13:24;;;;;;;0.30;0.20;;;;;;;;;;5089860;28;20443;-69
2021/07/15 06:15:50;;;;;;;0.50;0.30;;;;;;;;;;5089631;28;20421;-69
2021/07/15 06:18:16;;;;;;;0.37;0.23;;;;;;;;;;5092547;28;20413;-68
2021/07/15 06:20:42;;;;;;;1.70;0.50;;;;;;;;;;5087397;28;20453;-70
2021/07/15 06:23:08;;;;;;;0.67;0.20;;;;;;;;;;5080956;28;20433;-69
2021/07/15 06:25:34;;;;;;;0.40;0.30;;;;;;;;;;5079521;28;20837;-68
2021/07/15 06:28:00;;;;;;;0.50;0.30;;;;;;;;;;5082436;28;20501;-69
2021/07/15 06:30:26;;;;;;;6.37;0.63;;;;;;;;;;5080556;28;20919;-69
2021/07/15 06:32:52;;;;;;;0.53;0.53;;;;;;;;;;5081827;28;20437;-68
2021/07/15 06:35:21;;;;;;;0.40;0.20;;;;;;;;;;5085041;28;20425;-68
2021/07/15 06:37:51;;;;;;;0.57;0.30;;;;;;;;;;5085966;28;20429;-68
2021/07/15 06:40:17;;;;;;;1.60;1.40;;;;;;;;;;5085672;28;20911;-68
2021/07/15 06:42:43;;;;;;;3.50;0.40;;;;;;;;;;5087403;28;20425;-69
2021/07/15 06:45:10;;;;;;;2.40;0.50;;;;;;;;;;5087183;28;20425;-68
2021/07/15 06:47:36;;;;;;;0.50;0.30;;;;;;;;;;5081531;28;20473;-68
2021/07/15 06:50:04;;;;;;;1.53;0.70;;;;;;;;;;5090070;28;20424;-69
2021/07/15 06:52:30;;;;;;;0.97;0.47;;;;;;;;;;5091694;28;20478;-69
2021/07/15 06:54:57;;;;;;;3.20;2.53;;;;;;;;;;5065922;28;20921;-68
2021/07/15 06:57:23;;;;;;;0.40;0.30;;;;;;;;;;5055158;28;20426;-68
2021/07/15 06:59:49;;;;;;;2.63;0.30;;;;;;;;;;5071111;28;20490;-69
2021/07/15 07:02:15;;;;;;;2.10;0.40;;;;;;;;;;5071263;28;20437;-69
2021/07/15 07:04:41;;;;;;;2.03;0.30;;;;;;;;;;5065447;28;20564;-68
2021/07/15 07:07:07;;;;;;;1.13;0.37;;;;;;;;;;5064568;28;20473;-68
2021/07/15 07:09:33;;;;;;;0.50;0.37;;;;;;;;;;5066558;28;20464;-69
2021/07/15 07:11:59;;;;;;;0.87;0.33;;;;;;;;;;5068258;28;20544;-70
2021/07/15 07:14:25;;;;;;;0.50;0.30;;;;;;;;;;5064767;28;20452;-69
2021/07/15 07:16:51;;;;;;;0.60;0.20;;;;;;;;;;5067426;28;20426;-71
2021/07/15 07:19:17;;;;;;;1.97;0.47;;;;;;;;;;5068585;28;20475;-68
2021/07/15 07:21:43;;;;;;;0.80;0.33;;;;;;;;;;5059041;28;20439;-68
2021/07/15 07:24:10;;;;;;;0.37;0.20;;;;;;;;;;5058966;28;20503;-69
2021/07/15 07:26:36;;;;;;;0.43;0.27;;;;;;;;;;5064709;28;20470;-70
2021/07/15 07:29:02;;;;;;;1.20;0.40;;;;;;;;;;5058660;28;20483;-69
2021/07/15 07:31:28;;;;;;;0.50;0.33;;;;;;;;;;5060190;28;20441;-69
2021/07/15 07:33:55;;;;;;;1.20;0.50;;;;;;;;;;5047935;28;20449;-68
2021/07/15 07:36:21;;;;;;;0.67;0.53;;;;;;;;;;5059020;28;20469;-69
2021/07/15 07:38:47;;;;;;;3.33;0.70;;;;;;;;;;5061792;28;20444;-69
2021/07/15 07:41:13;;;;;;;1.13;0.40;;;;;;;;;;5064955;28;20450;-69
2021/07/15 07:43:39;;;;;;;1.00;0.40;;;;;;;;;;5057186;28;20496;-69
2021/07/15 07:46:05;;;;;;;0.80;0.40;;;;;;;;;;5062804;28;20488;-69
2021/07/15 07:48:31;;;;;;;0.57;0.57;;;;;;;;;;5071451;28;20473;-69
2021/07/15 07:50:58;;;;;;;3.40;0.73;;;;;;;;;;5071033;28;20438;-69
2021/07/15 07:53:25;;;;;;;2.53;0.47;;;;;;;;;;5071391;28;20429;-69
2021/07/15 07:55:51;;;;;;;1.07;0.30;;;;;;;;;;5067511;28;20437;-68
2021/07/15 07:58:17;;;;;;;0.60;0.33;;;;;;;;;;5068621;28;20449;-69
2021/07/15 08:00:43;;;;;;;0.40;0.30;;;;;;;;;;5070070;28;20465;-68
2021/07/15 08:03:09;;;;;;;0.60;0.30;;;;;;;;;;5068391;28;20418;-68
2021/07/15 08:05:38;;;;;;;0.57;0.40;;;;;;;;;;5069105;28;20509;-69
2021/07/15 08:08:05;;;;;;;0.40;0.40;;;;;;;;;;5064953;28;20481;-67
2021/07/15 08:10:31;;;;;;;2.03;0.30;;;;;;;;;;5070761;28;20481;-71
2021/07/15 08:12:57;;;;;;;1.70;0.40;;;;;;;;;;5070654;28;20449;-69
2021/07/15 08:15:23;;;;;;;0.80;0.40;;;;;;;;;;5066300;28;20440;-69
2021/07/15 08:17:49;;;;;;;1.53;0.40;;;;;;;;;;5071220;28;20430;-69
2021/07/15 08:20:15;;;;;;;1.27;0.50;;;;;;;;;;5059671;28;20445;-69
2021/07/15 08:22:42;;;;;;;3.03;0.40;;;;;;;;;;5060114;28;20438;-69
2021/07/15 08:25:08;;;;;;;0.47;0.30;;;;;;;;;;5063470;28;20533;-69
2021/07/15 08:27:34;;;;;;;2.60;0.30;;;;;;;;;;5057959;28;20457;-69
2021/07/15 08:30:01;;;;;;;1.00;0.40;;;;;;;;;;5059444;28;20526;-69
2021/07/15 08:32:27;;;;;;;6.10;0.80;;;;;;;;;;5065709;28;20901;-68
2021/07/15 08:34:53;;;;;;;0.87;0.50;;;;;;;;;;5065790;28;20466;-70
2021/07/15 08:37:19;;;;;;;0.77;0.30;;;;;;;;;;5052107;28;20432;-68
2021/07/15 08:39:45;;;;;;;0.50;0.40;;;;;;;;;;5067694;28;20446;-68
2021/07/15 08:42:11;;;;;;;0.57;0.47;;;;;;;;;;5063094;28;20920;-68
2021/07/15 08:44:40;;;;;;;0.67;0.30;;;;;;;;;;5064252;28;20434;-70
2021/07/15 08:47:07;;;;;;;0.70;0.37;;;;;;;;;;5068990;28;20491;-68
2021/07/15 08:49:33;;;;;;;0.40;0.30;;;;;;;;;;5070410;28;20438;-67
2021/07/15 08:52:00;;;;;;;1.17;0.30;;;;;;;;;;5062182;28;20444;-70
2021/07/15 08:55:01;;;;;;;0.80;0.20;;;;;;;;;;5063242;28;20430;-68
2021/07/15 08:57:18;;;;;;;0.77;0.60;;;;;;;;;;5048712;28;20422;-69
2021/07/15 08:59:44;;;;;;;0.50;0.50;;;;;;;;;;5049257;28;20513;-68
2021/07/15 09:02:16;;;;;;;0.40;0.27;;;;;;;;;;5072193;28;20861;-68
2021/07/15 09:04:42;;;;;;;1.00;0.50;;;;;;;;;;5051748;28;20794;-68
2021/07/15 09:07:08;;;;;;;0.43;0.40;;;;;;;;;;5066624;28;20475;-67
2021/07/15 09:09:34;;;;;;;2.10;0.53;;;;;;;;;;5042999;28;20454;-66
2021/07/15 09:12:00;;;;;;;0.53;0.40;;;;;;;;;;5063511;28;20477;-69
2021/07/15 09:14:27;;;;;;;1.53;0.40;;;;;;;;;;5061074;28;20457;-70
2021/07/15 09:16:54;;;;;;;1.20;0.50;;;;;;;;;;5052496;28;20936;-69
2021/07/15 09:19:22;;;;;;;1.80;0.50;;;;;;;;;;5059520;28;20437;-68
2021/07/15 09:21:48;;;;;;;1.00;0.40;;;;;;;;;;5059572;28;20438;-69
2021/07/15 09:24:29;;;;;;;0.80;0.53;;;;;;;;;;5053695;28;20533;-69
2021/07/15 09:26:57;;;;;;;0.60;0.30;;;;;;;;;;5052953;28;20447;-69
2021/07/15 09:29:23;;;;;;;0.60;0.37;;;;;;;;;;5055762;28;20792;-70
2021/07/15 09:31:53;;;;;;;1.73;0.40;;;;;;;;;;5059968;28;20529;-69
2021/07/15 09:34:20;;;;;;;0.60;0.40;;;;;;;;;;5062955;28;20891;-70
2021/07/15 09:36:46;;;;;;;0.40;0.40;;;;;;;;;;5054410;28;20438;-68
2021/07/15 09:39:19;;;;;;;1.07;0.30;;;;;;;;;;5055512;28;20437;-69
2021/07/15 09:42:05;;;;;;;0.67;0.50;;;;;;;;;;5038856;28;20439;-69
2021/07/15 09:44:38;;;;;;;2.67;0.50;;;;;;;;;;5057747;28;20441;-69
2021/07/15 09:47:05;;;;;;;1.37;0.30;;;;;;;;;;5043129;28;20501;-68
2021/07/15 09:49:32;;;;;;;1.50;0.90;;;;;;;;;;5043057;28;20463;-69
2021/07/15 09:51:59;;;;;;;0.60;0.60;;;;;;;;;;5058755;28;20505;-67
2021/07/15 09:54:25;;;;;;;0.47;0.40;;;;;;;;;;5056726;28;21021;-67
2021/07/15 09:56:51;;;;;;;0.90;0.60;;;;;;;;;;5064573;28;20473;-67
2021/07/15 09:59:17;;;;;;;0.90;0.30;;;;;;;;;;5061001;28;20523;-68
2021/07/15 10:01:47;;;;;;;1.67;0.50;;;;;;;;;;5054230;28;20887;-68
2021/07/15 10:04:20;;;;;;;1.37;0.37;;;;;;;;;;5056291;28;20427;-69
2021/07/15 10:06:48;;;;;;;1.40;0.63;;;;;;;;;;5058219;28;20447;-68
2021/07/15 10:09:30;;;;;;;3.63;0.50;;;;;;;;;;5066021;28;20453;-69
2021/07/15 10:11:56;;;;;;;1.40;0.53;;;;;;;;;;5073991;28;21096;-68
2021/07/15 10:14:33;;;;;;;1.00;0.40;;;;;;;;;;5076678;28;20445;-69
2021/07/15 10:16:59;;;;;;;0.80;0.50;;;;;;;;;;5070215;28;20426;-68
2021/07/15 10:19:25;;;;;;;1.30;1.10;;;;;;;;;;5068942;28;20451;-68
2021/07/15 10:21:58;;;;;;;0.50;0.50;;;;;;;;;;5063118;28;20438;-68
2021/07/15 10:24:25;;;;;;;1.97;1.87;;;;;;;;;;5070722;28;20785;-69
2021/07/15 10:26:53;;;;;;;1.60;0.80;;;;;;;;;;5068623;28;21087;-68
2021/07/15 10:29:19;;;;;;;0.60;0.60;;;;;;;;;;5069106;28;20473;-68
2021/07/15 10:31:46;;;;;;;1.60;0.70;;;;;;;;;;5076826;28;20468;-70
2021/07/15 10:34:13;;;;;;;0.67;0.40;;;;;;;;;;5074058;28;20438;-68
2021/07/15 10:36:39;;;;;;;0.50;0.40;;;;;;;;;;5075202;28;20442;-68
2021/07/15 10:39:10;;;;;;;0.67;0.50;;;;;;;;;;5072702;28;20487;-69
2021/07/15 10:41:37;;;;;;;0.60;0.30;;;;;;;;;;5073987;28;20520;-68
2021/07/15 10:44:03;;;;;;;0.40;0.33;;;;;;;;;;5064199;28;20429;-70
2021/07/15 10:46:30;;;;;;;0.73;0.50;;;;;;;;;;5066650;28;20437;-68
2021/07/15 10:48:56;;;;;;;3.40;0.50;;;;;;;;;;5074021;28;20501;-69
2021/07/15 10:51:22;;;;;;;0.50;0.40;;;;;;;;;;5075202;28;20498;-69
2021/07/15 10:53:48;;;;;;;1.03;0.50;;;;;;;;;;5074035;28;20434;-69
2021/07/15 10:56:19;;;;;;;2.93;0.40;;;;;;;;;;5073073;28;20441;-68
2021/07/15 10:58:46;;;;;;;0.93;0.70;;;;;;;;;;5074990;28;20484;-68
2021/07/15 11:01:36;;;;;;;3.23;0.70;;;;;;;;;;5074589;28;20442;-68
2021/07/15 11:04:10;;;;;;;0.53;0.50;;;;;;;;;;5053337;28;21022;-68
2021/07/15 11:06:38;;;;;;;2.33;0.80;;;;;;;;;;5071121;28;20437;-70
2021/07/15 11:09:03;;;;;;;2.63;0.50;;;;;;;;;;5068031;28;20481;-71
2021/07/15 11:11:33;;;;;;;2.87;0.53;;;;;;;;;;5067564;28;20564;-71
2021/07/15 11:13:59;;;;;;;1.30;0.60;;;;;;;;;;5068056;28;20944;-72
2021/07/15 11:16:44;;;;;;;0.93;0.63;;;;;;;;;;5068293;28;20900;-70
2021/07/15 11:19:17;;;;;;;2.00;0.80;;;;;;;;;;5067057;28;20446;-69
2021/07/15 11:21:56;;;;;;;0.73;0.33;;;;;;;;;;5072225;28;20872;-69
2021/07/15 11:24:28;;;;;;;1.70;0.57;;;;;;;;;;5071494;28;20816;-69
2021/07/15 11:26:54;;;;;;;0.50;0.30;;;;;;;;;;5073113;28;20496;-69
2021/07/15 11:29:40;;;;;;;0.50;0.47;;;;;;;;;;5072505;28;20460;-70
2021/07/15 11:32:23;;;;;;;0.47;0.40;;;;;;;;;;5072955;28;20442;-69
2021/07/15 11:34:53;;;;;;;0.50;0.40;;;;;;;;;;5072111;28;20857;-69
2021/07/15 11:37:37;;;;;;;1.43;0.57;;;;;;;;;;5071470;28;20434;-71
2021/07/15 11:40:05;;;;;;;1.57;0.60;;;;;;;;;;5071698;28;20442;-69
2021/07/15 11:42:35;;;;;;;0.90;0.63;;;;;;;;;;5071259;28;20453;-69
2021/07/15 11:45:03;;;;;;;0.70;0.60;;;;;;;;;;5071659;28;20434;-69
2021/07/15 11:47:44;;;;;;;2.30;0.40;;;;;;;;;;5071372;28;20963;-69
2021/07/15 11:50:29;;;;;;;0.60;0.40;;;;;;;;;;5069433;28;20434;-70
2021/07/15 11:53:13;;;;;;;0.60;0.33;;;;;;;;;;5069886;28;20425;-70
2021/07/15 11:55:39;;;;;;;0.50;0.40;;;;;;;;;;5070937;28;20470;-69
2021/07/15 11:58:05;;;;;;;1.23;0.47;;;;;;;;;;5064169;28;20524;-69
2021/07/15 12:00:31;;;;;;;1.23;0.50;;;;;;;;;;5054504;28;20783;-70
2021/07/15 12:02:58;;;;;;;0.53;0.50;;;;;;;;;;5061454;28;20505;-71
2021/07/15 12:05:29;;;;;;;1.03;0.63;;;;;;;;;;5070582;28;20488;-70
2021/07/15 12:08:08;;;;;;;2.20;0.47;;;;;;;;;;5075151;28;20465;-70
2021/07/15 12:10:36;;;;;;;1.23;0.53;;;;;;;;;;5074848;28;20477;-70
2021/07/15 12:13:03;;;;;;;0.57;0.57;;;;;;;;;;5075667;28;20418;-70
2021/07/15 12:15:29;;;;;;;0.97;0.50;;;;;;;;;;5075391;28;20856;-69
2021/07/15 12:17:59;;;;;;;0.80;0.53;;;;;;;;;;5074889;28;20457;-69
2021/07/15 12:20:35;;;;;;;0.80;0.50;;;;;;;;;;5075096;28;20417;-70
2021/07/15 12:23:01;;;;;;;1.00;0.67;;;;;;;;;;5074985;28;20489;-69
2021/07/15 12:25:29;;;;;;;0.50;0.40;;;;;;;;;;5074781;28;20530;-69
2021/07/15 12:27:56;;;;;;;0.73;0.60;;;;;;;;;;5075175;28;20461;-69
2021/07/15 12:30:24;;;;;;;1.00;0.50;;;;;;;;;;5075153;28;20830;-69
2021/07/15 12:32:54;;;;;;;0.60;0.50;;;;;;;;;;5074853;28;20426;-70
2021/07/15 12:35:20;;;;;;;1.63;1.47;;;;;;;;;;5064031;28;20695;-69
2021/07/15 12:37:46;;;;;;;1.03;0.67;;;;;;;;;;5054939;28;20450;-73
2021/07/15 12:40:13;;;;;;;2.43;0.60;;;;;;;;;;5054511;28;20823;-70
2021/07/15 12:42:39;;;;;;;0.60;0.50;;;;;;;;;;5063830;28;20437;-69
2021/07/15 12:45:34;;;;;;;0.80;0.80;;;;;;;;;;5071462;28;20917;-69
2021/07/15 12:48:03;;;;;;;1.07;0.67;;;;;;;;;;5052130;28;20576;-70
2021/07/15 12:50:30;;;;;;;1.13;0.60;;;;;;;;;;5071318;28;20467;-70
2021/07/15 12:53:08;;;;;;;1.37;0.60;;;;;;;;;;5071064;28;20457;-68
2021/07/15 12:55:34;;;;;;;0.80;0.80;;;;;;;;;;5069512;28;20490;-68
2021/07/15 12:58:00;;;;;;;2.43;0.60;;;;;;;;;;5071161;28;20430;-69
2021/07/15 13:00:30;;;;;;;1.30;0.67;;;;;;;;;;5071037;28;20434;-70
2021/07/15 13:02:57;;;;;;;0.97;0.67;;;;;;;;;;5070336;28;20469;-70
2021/07/15 13:05:23;;;;;;;0.80;0.80;;;;;;;;;;5071290;28;20948;-70
2021/07/15 13:07:49;;;;;;;0.80;0.70;;;;;;;;;;5071022;28;20477;-67
2021/07/15 13:16:05;;;;;;;3.20;0.97;;;;;;;;;;4988031;28;20425;-69
2021/07/15 13:18:31;;;;;;;1.20;0.90;;;;;;;;;;5054915;28;20465;-68
2021/07/15 13:20:58;;;;;;;1.27;1.13;;;;;;;;;;5053147;28;21074;-70
2021/07/15 13:23:24;;;;;;;2.23;0.80;;;;;;;;;;5069648;28;20495;-69
2021/07/15 13:25:51;;;;;;;1.13;1.03;;;;;;;;;;5071010;28;20430;-69
2021/07/15 13:28:18;;;;;;;0.70;0.70;;;;;;;;;;5070783;28;20481;-69
2021/07/15 13:30:45;;;;;;;2.20;0.70;;;;;;;;;;5070910;28;20484;-69
2021/07/15 13:33:12;;;;;;;0.97;0.87;;;;;;;;;;5070655;28;20433;-69
2021/07/15 13:35:38;;;;;;;1.10;0.90;;;;;;;;;;5071152;28;20430;-69
2021/07/15 13:38:05;;;;;;;1.80;0.90;;;;;;;;;;5050816;28;20959;-70
2021/07/15 13:40:33;;;;;;;2.73;1.67;;;;;;;;;;5070172;28;20915;-69
2021/07/15 13:43:16;;;;;;;2.07;0.80;;;;;;;;;;5052554;28;20486;-70
2021/07/15 13:45:46;;;;;;;1.57;0.90;;;;;;;;;;5067011;28;20450;-70
2021/07/15 13:48:12;;;;;;;0.80;0.80;;;;;;;;;;5069715;28;20484;-70
2021/07/15 13:50:38;;;;;;;2.70;1.00;;;;;;;;;;5070599;28;20421;-70
2021/07/15 13:53:04;;;;;;;0.70;0.70;;;;;;;;;;5070566;28;20799;-69
2021/07/15 13:55:30;;;;;;;1.00;0.90;;;;;;;;;;5070288;28;20858;-69
2021/07/15 13:57:57;;;;;;;0.80;0.80;;;;;;;;;;5070349;28;20426;-69
2021/07/15 14:00:24;;;;;;;1.53;0.90;;;;;;;;;;5070042;28;20874;-70
2021/07/15 14:02:52;;;;;;;0.90;0.90;;;;;;;;;;5068518;28;20430;-69
2021/07/15 14:05:22;;;;;;;0.70;0.70;;;;;;;;;;5069900;28;20426;-69
2021/07/15 14:07:49;;;;;;;0.93;0.93;;;;;;;;;;5069332;28;20554;-69
2021/07/15 14:10:15;;;;;;;1.50;1.40;;;;;;;;;;5069058;28;20935;-70
2021/07/15 14:12:43;;;;;;;3.63;1.53;;;;;;;;;;5069853;28;20595;-69
2021/07/15 14:15:23;;;;;;;1.67;1.00;;;;;;;;;;5069942;28;20827;-70
2021/07/15 14:18:01;;;;;;;2.37;1.40;;;;;;;;;;5067797;28;20436;-69
2021/07/15 14:20:27;;;;;;;1.37;0.90;;;;;;;;;;5070176;28;20781;-70
2021/07/15 14:22:53;;;;;;;1.23;1.10;;;;;;;;;;5069565;28;20996;-69
2021/07/15 14:25:19;;;;;;;1.50;1.40;;;;;;;;;;5069515;28;20516;-70
2021/07/15 14:27:46;;;;;;;0.80;0.80;;;;;;;;;;5052487;28;20847;-69
2021/07/15 14:30:12;;;;;;;0.70;0.63;;;;;;;;;;5070188;28;20434;-70
2021/07/15 14:32:38;;;;;;;2.93;0.83;;;;;;;;;;5069428;28;20515;-70
2021/07/15 14:35:05;;;;;;;0.60;0.60;;;;;;;;;;5069544;28;20429;-69
2021/07/15 14:37:31;;;;;;;0.67;0.67;;;;;;;;;;5069345;28;20448;-70
2021/07/15 14:39:58;;;;;;;0.70;0.70;;;;;;;;;;5069997;28;20437;-70
2021/07/15 14:42:25;;;;;;;0.50;0.50;;;;;;;;;;5069219;28;20987;-70
2021/07/15 14:44:51;;;;;;;1.90;0.70;;;;;;;;;;5069703;28;20441;-70
2021/07/15 14:47:18;;;;;;;0.60;0.57;;;;;;;;;;5069362;28;20473;-70
2021/07/15 14:49:44;;;;;;;0.60;0.60;;;;;;;;;;5069805;28;20449;-70
2021/07/15 14:52:10;;;;;;;1.20;0.77;;;;;;;;;;5068764;28;20434;-70
2021/07/15 14:54:36;;;;;;;0.93;0.70;;;;;;;;;;5068436;28;20972;-69